Time;durP1;ratioP1;P1;durP2;ratioP2;P2;SDS_P1;SDS_P2;PMS_P1;PMS_P2;Temp;Humidity;BMP_temperature;BMP_pressure;BME280_temperature;BME280_humidity;BME280_pressure;Samples;Min_cycle;Max_cycle;Signal;HPM_P1;HPM_P2
2021/10/09 00:02:54;;;;;;;7.93;7.20;;;10.50;99.90;;;;;;6249716;28;20858;-65
2021/10/09 00:05:57;;;;;;;9.57;8.67;;;10.50;99.90;;;;;;6249963;28;20471;-64
2021/10/09 00:09:00;;;;;;;10.07;8.53;;;10.50;99.90;;;;;;6250157;28;20471;-63
2021/10/09 00:12:03;;;;;;;11.13;9.67;;;10.50;99.90;;;;;;6249818;28;20471;-64
2021/10/09 00:15:09;;;;;;;12.00;9.20;;;10.60;99.90;;;;;;6250127;28;20482;-64
2021/10/09 00:18:12;;;;;;;10.70;8.40;;;10.60;99.90;;;;;;6249883;28;20471;-65
2021/10/09 00:21:15;;;;;;;10.97;8.77;;;10.60;99.90;;;;;;6250037;28;20471;-65
2021/10/09 00:24:20;;;;;;;8.63;7.80;;;10.60;99.90;;;;;;6250447;28;20529;-64
2021/10/09 00:27:23;;;;;;;10.53;7.87;;;10.70;99.90;;;;;;6250462;28;20471;-64
2021/10/09 00:30:28;;;;;;;9.03;7.97;;;10.60;99.90;;;;;;6249853;28;20471;-64
2021/10/09 00:33:31;;;;;;;8.67;7.70;;;10.60;99.90;;;;;;6249524;28;20483;-65
2021/10/09 00:36:34;;;;;;;9.13;8.20;;;10.60;99.90;;;;;;6250254;28;20487;-64
2021/10/09 00:39:37;;;;;;;11.17;8.50;;;10.60;99.90;;;;;;6250312;28;20549;-64
2021/10/09 00:42:40;;;;;;;11.97;10.87;;;10.60;99.90;;;;;;6250574;28;20483;-64
2021/10/09 00:45:51;;;;;;;12.63;10.17;;;10.60;99.90;;;;;;6250242;28;20482;-64
2021/10/09 00:48:55;;;;;;;10.90;9.80;;;10.60;99.90;;;;;;6254515;28;20471;-64
2021/10/09 00:52:00;;;;;;;10.43;9.47;;;10.50;99.90;;;;;;6254508;28;20501;-64
2021/10/09 00:55:05;;;;;;;11.07;9.97;;;10.60;99.90;;;;;;6254763;28;20471;-64
2021/10/09 00:58:09;;;;;;;10.53;9.10;;;10.60;99.90;;;;;;6254669;28;20537;-64
2021/10/09 01:01:13;;;;;;;10.30;9.07;;;10.60;99.90;;;;;;6254128;28;20483;-64
2021/10/09 01:04:18;;;;;;;11.10;8.57;;;10.60;99.90;;;;;;6254187;28;20474;-64
2021/10/09 01:07:21;;;;;;;11.40;9.53;;;10.50;99.90;;;;;;6254618;28;20471;-64
2021/10/09 01:10:24;;;;;;;9.90;8.90;;;10.60;99.90;;;;;;6254258;28;20454;-64
2021/10/09 01:13:28;;;;;;;10.13;7.57;;;10.50;99.90;;;;;;6254510;28;20454;-64
2021/10/09 01:16:32;;;;;;;10.13;8.97;;;10.50;99.90;;;;;;6254533;28;20910;-64
2021/10/09 01:19:35;;;;;;;11.20;9.43;;;10.40;99.90;;;;;;6254106;28;20782;-64
2021/10/09 01:22:40;;;;;;;9.80;8.40;;;10.40;99.90;;;;;;6253807;28;20954;-64
2021/10/09 01:25:43;;;;;;;10.53;8.10;;;10.30;99.90;;;;;;6253633;28;20545;-64
2021/10/09 01:28:48;;;;;;;7.30;6.60;;;10.30;99.90;;;;;;6254044;28;20474;-64
2021/10/09 01:31:51;;;;;;;8.30;7.53;;;10.20;99.90;;;;;;6254070;28;20486;-64
2021/10/09 01:34:54;;;;;;;9.47;8.47;;;10.20;99.90;;;;;;6259106;28;20559;-64
2021/10/09 01:37:59;;;;;;;12.50;8.23;;;10.10;99.90;;;;;;6278457;28;20532;-65
2021/10/09 01:41:04;;;;;;;12.00;8.50;;;10.10;99.90;;;;;;6278516;28;20474;-65
2021/10/09 01:44:07;;;;;;;10.60;7.50;;;10.10;99.90;;;;;;6278463;28;20527;-65
2021/10/09 01:47:10;;;;;;;8.67;7.40;;;10.10;99.90;;;;;;6278201;28;20466;-65
2021/10/09 01:50:15;;;;;;;9.63;7.40;;;10.00;99.90;;;;;;6277943;28;20466;-65
2021/10/09 01:53:19;;;;;;;8.67;7.50;;;10.00;99.90;;;;;;6278373;28;20465;-65
2021/10/09 01:56:22;;;;;;;11.90;7.23;;;10.00;99.90;;;;;;6278076;28;20478;-65
2021/10/09 01:59:25;;;;;;;10.10;8.50;;;9.90;99.90;;;;;;6277700;28;20466;-65
2021/10/09 02:02:28;;;;;;;7.57;6.63;;;9.90;99.90;;;;;;6277441;28;20559;-65
2021/10/09 02:05:33;;;;;;;9.47;7.40;;;9.80;99.90;;;;;;6277401;28;20469;-65
2021/10/09 02:08:38;;;;;;;8.37;7.60;;;9.80;99.90;;;;;;6273348;28;20794;-65
2021/10/09 02:11:42;;;;;;;8.83;7.23;;;9.80;99.90;;;;;;6277743;28;20484;-64
2021/10/09 02:14:49;;;;;;;9.43;7.37;;;9.70;99.90;;;;;;6277503;28;20531;-64
2021/10/09 02:18:19;;;;;;;8.77;7.87;;;9.70;99.90;;;;;;6277401;28;20795;-64
2021/10/09 02:24:53;;;;;;;8.27;7.47;;;9.60;99.90;;;;;;6277241;28;20477;-64
2021/10/09 02:27:57;;;;;;;8.40;7.07;;;9.50;99.90;;;;;;6277516;28;20478;-65
2021/10/09 02:31:00;;;;;;;7.57;6.87;;;9.50;99.90;;;;;;6276481;28;20474;-65
2021/10/09 02:34:03;;;;;;;8.40;7.57;;;9.50;99.90;;;;;;6276932;28;20466;-65
2021/10/09 02:37:06;;;;;;;7.73;6.90;;;9.50;99.90;;;;;;6277081;28;20470;-65
2021/10/09 02:40:12;;;;;;;11.33;8.17;;;9.40;99.90;;;;;;6276954;28;20501;-65
2021/10/09 02:43:16;;;;;;;12.47;9.73;;;9.40;99.90;;;;;;6276934;28;20855;-65
2021/10/09 02:46:20;;;;;;;15.50;8.57;;;9.40;99.90;;;;;;6276774;28;20461;-65
2021/10/09 02:49:23;;;;;;;8.23;7.43;;;9.30;99.90;;;;;;6276503;28;20466;-65
2021/10/09 02:52:26;;;;;;;9.60;8.33;;;9.30;99.90;;;;;;6276832;28;20458;-65
2021/10/09 02:55:30;;;;;;;7.80;7.10;;;9.30;99.90;;;;;;6276587;28;20886;-65
2021/10/09 02:58:33;;;;;;;13.73;7.40;;;9.30;99.90;;;;;;6276808;28;20450;-65
2021/10/09 03:01:37;;;;;;;7.47;6.87;;;9.30;99.90;;;;;;6276097;28;20513;-65
2021/10/09 03:04:40;;;;;;;8.47;7.30;;;9.20;99.90;;;;;;6276376;28;20533;-65
2021/10/09 03:07:43;;;;;;;9.47;7.93;;;9.30;99.90;;;;;;6276390;28;20446;-65
2021/10/09 03:10:47;;;;;;;7.80;7.10;;;9.20;99.90;;;;;;6265734;28;20501;-65
2021/10/09 03:13:51;;;;;;;8.00;7.03;;;9.20;99.90;;;;;;6275744;28;20536;-65
2021/10/09 03:16:55;;;;;;;7.30;6.60;;;9.20;99.90;;;;;;6276008;28;20486;-65
2021/10/09 03:19:58;;;;;;;10.27;7.07;;;9.20;99.90;;;;;;6275963;28;20473;-65
2021/10/09 03:23:01;;;;;;;9.13;7.13;;;9.20;99.90;;;;;;6276242;28;20470;-65
2021/10/09 03:26:05;;;;;;;8.93;6.93;;;9.10;99.90;;;;;;6275916;28;20997;-65
2021/10/09 03:29:08;;;;;;;8.60;7.70;;;9.20;99.90;;;;;;6275982;28;20488;-65
2021/10/09 03:32:12;;;;;;;7.83;7.13;;;9.10;99.90;;;;;;6275740;28;20489;-65
2021/10/09 03:35:15;;;;;;;9.10;6.90;;;9.00;99.90;;;;;;6275693;28;20470;-65
2021/10/09 03:38:19;;;;;;;13.03;7.80;;;9.00;99.90;;;;;;6275562;28;20478;-65
2021/10/09 03:41:23;;;;;;;8.53;7.63;;;8.90;99.90;;;;;;6275374;28;20486;-65
2021/10/09 03:44:29;;;;;;;9.03;7.00;;;8.90;99.90;;;;;;6275224;28;20815;-65
2021/10/09 03:47:45;;;;;;;8.60;7.70;;;8.90;99.90;;;;;;6275087;28;20477;-65
2021/10/09 03:54:09;;;;;;;8.87;7.73;;;8.90;99.90;;;;;;6275365;28;20523;-65
2021/10/09 03:57:14;;;;;;;10.57;8.30;;;8.90;99.90;;;;;;6275020;28;20477;-65
2021/10/09 04:00:18;;;;;;;8.50;7.17;;;8.80;99.90;;;;;;6274517;28;20477;-63
2021/10/09 04:03:21;;;;;;;9.80;7.23;;;8.80;99.90;;;;;;6274785;28;20474;-64
2021/10/09 04:06:24;;;;;;;8.07;6.70;;;8.80;99.90;;;;;;6274542;28;20543;-64
2021/10/09 04:09:28;;;;;;;10.07;7.83;;;8.80;99.90;;;;;;6274730;28;20470;-64
2021/10/09 04:12:32;;;;;;;7.57;6.83;;;8.70;99.90;;;;;;6274855;28;20481;-64
2021/10/09 04:15:35;;;;;;;9.00;7.00;;;8.70;99.90;;;;;;6270455;28;20485;-64
2021/10/09 04:18:38;;;;;;;11.60;7.80;;;8.70;99.90;;;;;;6274240;28;20539;-64
2021/10/09 04:21:42;;;;;;;8.97;8.07;;;8.70;99.90;;;;;;6274309;28;20482;-64
2021/10/09 04:24:45;;;;;;;15.63;6.90;;;8.60;99.90;;;;;;6274291;28;20470;-65
2021/10/09 04:27:49;;;;;;;7.70;7.00;;;8.60;99.90;;;;;;6274484;28;20477;-65
2021/10/09 04:30:52;;;;;;;9.30;7.60;;;8.60;99.90;;;;;;6274545;28;20840;-65
2021/10/09 04:33:56;;;;;;;9.50;7.13;;;8.60;99.90;;;;;;6274399;28;20791;-64
2021/10/09 04:36:59;;;;;;;11.40;7.63;;;8.50;99.90;;;;;;6274447;28;20977;-66
2021/10/09 04:40:02;;;;;;;8.40;7.20;;;8.50;99.90;;;;;;6275097;28;20473;-66
2021/10/09 04:43:07;;;;;;;8.73;7.73;;;8.50;99.90;;;;;;6274717;28;20970;-64
2021/10/09 04:46:10;;;;;;;11.43;7.90;;;8.50;99.90;;;;;;6274315;28;20477;-64
2021/10/09 04:49:13;;;;;;;9.10;7.70;;;8.50;99.90;;;;;;6274540;28;20985;-64
2021/10/09 04:52:16;;;;;;;8.80;7.13;;;8.40;99.90;;;;;;6274431;28;20485;-65
2021/10/09 04:55:20;;;;;;;9.20;8.20;;;8.40;99.90;;;;;;6274014;28;20481;-64
2021/10/09 04:58:24;;;;;;;12.23;7.47;;;8.40;99.90;;;;;;6273936;28;20470;-64
2021/10/09 05:01:27;;;;;;;8.43;7.50;;;8.40;99.90;;;;;;6273611;28;20482;-64
2021/10/09 05:04:30;;;;;;;9.80;8.90;;;8.30;99.90;;;;;;6274313;28;20748;-65
2021/10/09 05:07:33;;;;;;;9.97;7.70;;;8.30;99.90;;;;;;6274097;28;20457;-65
2021/10/09 05:10:39;;;;;;;10.80;8.13;;;8.30;99.90;;;;;;6274103;28;20790;-64
2021/10/09 05:13:43;;;;;;;11.70;9.40;;;8.30;99.90;;;;;;6274842;28;20450;-64
2021/10/09 05:16:46;;;;;;;9.97;8.97;;;8.30;99.90;;;;;;6275318;28;20949;-64
2021/10/09 05:19:49;;;;;;;10.60;8.47;;;8.40;99.90;;;;;;6274147;28;20500;-64
2021/10/09 05:22:52;;;;;;;9.83;8.83;;;8.40;99.90;;;;;;6274008;28;20478;-64
2021/10/09 05:26:00;;;;;;;8.93;8.03;;;8.40;99.90;;;;;;6273976;28;20577;-64
2021/10/09 05:29:05;;;;;;;14.50;9.40;;;8.40;99.90;;;;;;6273710;28;20479;-64
2021/10/09 05:32:08;;;;;;;14.43;9.03;;;8.40;99.90;;;;;;6273373;28;20481;-64
2021/10/09 05:35:11;;;;;;;13.93;9.93;;;8.50;99.90;;;;;;6277979;28;20470;-63
2021/10/09 05:38:15;;;;;;;13.87;9.47;;;8.50;99.90;;;;;;6278421;28;20489;-64
2021/10/09 05:41:20;;;;;;;11.87;9.27;;;8.50;99.90;;;;;;6278178;28;20478;-64
2021/10/09 05:44:24;;;;;;;12.00;9.23;;;8.50;99.90;;;;;;6277861;28;20974;-64
2021/10/09 05:47:30;;;;;;;11.97;10.77;;;8.50;99.90;;;;;;6277767;28;20988;-64
2021/10/09 05:50:40;;;;;;;11.60;9.67;;;8.60;99.90;;;;;;6278283;28;20514;-64
2021/10/09 05:53:55;;;;;;;10.77;9.63;;;8.60;99.90;;;;;;6278561;28;20945;-64
2021/10/09 05:57:03;;;;;;;10.80;9.27;;;8.70;99.90;;;;;;6278174;28;20487;-64
2021/10/09 06:00:31;;;;;;;11.60;9.00;;;8.80;99.90;;;;;;6278051;28;20539;-64
2021/10/09 06:47:19;;;;;;;10.30;9.17;;;10.80;99.90;;;;;;6265456;28;21006;-65
2021/10/09 07:00:22;;;;;;;15.13;9.93;;;11.60;99.90;;;;;;6259309;28;20470;-64
2021/10/09 07:03:26;;;;;;;19.40;12.20;;;11.90;99.90;;;;;;6257883;28;20485;-67
2021/10/09 07:06:31;;;;;;;18.70;12.53;;;12.10;99.90;;;;;;6267084;28;20478;-66
2021/10/09 07:09:34;;;;;;;19.53;11.47;;;12.40;99.90;;;;;;6270210;28;20466;-66
2021/10/09 07:12:38;;;;;;;14.00;12.00;;;12.60;99.90;;;;;;6250881;28;20475;-66
2021/10/09 07:15:42;;;;;;;12.60;10.90;;;12.70;99.90;;;;;;6270500;28;20466;-67
2021/10/09 07:18:45;;;;;;;18.43;12.03;;;12.90;99.90;;;;;;6267136;28;20470;-67
2021/10/09 07:21:49;;;;;;;14.53;12.53;;;13.20;99.90;;;;;;6275473;28;20497;-67
2021/10/09 07:25:12;;;;;;;13.90;11.70;;;13.60;99.90;;;;;;6274290;28;20502;-67
2021/10/09 07:28:15;;;;;;;14.57;11.33;;;14.00;99.90;;;;;;6264424;28;20486;-68
2021/10/09 07:31:19;;;;;;;19.03;11.80;;;14.30;99.50;;;;;;6275427;28;20498;-67
2021/10/09 07:34:22;;;;;;;15.03;10.70;;;14.40;98.80;;;;;;6276757;28;20490;-67
2021/10/09 07:37:26;;;;;;;13.40;10.90;;;14.60;98.40;;;;;;6274376;28;20486;-66
2021/10/09 07:40:30;;;;;;;11.63;10.40;;;15.00;97.60;;;;;;6275130;28;20458;-63
2021/10/09 07:43:33;;;;;;;11.67;10.10;;;15.10;96.60;;;;;;6275717;28;20979;-64
2021/10/09 07:46:36;;;;;;;13.73;10.70;;;15.00;95.80;;;;;;6274784;28;20449;-64
2021/10/09 07:49:40;;;;;;;9.90;8.27;;;15.10;95.40;;;;;;6275073;28;20834;-64
2021/10/09 07:52:44;;;;;;;12.20;9.83;;;15.30;95.40;;;;;;6275193;28;20481;-63
2021/10/09 07:55:47;;;;;;;9.93;8.93;;;15.50;94.90;;;;;;6273835;28;20466;-64
2021/10/09 07:58:51;;;;;;;11.70;10.13;;;15.70;95.00;;;;;;6271925;28;20469;-64
2021/10/09 08:01:54;;;;;;;12.97;8.70;;;16.00;94.90;;;;;;6273918;28;20486;-64
2021/10/09 08:04:57;;;;;;;11.97;9.40;;;16.20;94.40;;;;;;6272261;28;20563;-64
2021/10/09 08:08:02;;;;;;;15.03;10.83;;;16.30;93.30;;;;;;6295464;28;20477;-64
2021/10/09 08:11:05;;;;;;;13.40;9.80;;;16.30;92.60;;;;;;6298143;28;20520;-63
2021/10/09 08:14:09;;;;;;;12.20;9.13;;;16.60;92.40;;;;;;6284691;28;20481;-63
2021/10/09 08:17:12;;;;;;;9.90;8.70;;;18.80;90.30;;;;;;6273168;28;20481;-63
2021/10/09 08:20:16;;;;;;;9.73;8.70;;;22.60;76.70;;;;;;6273848;28;20242;-64
2021/10/09 08:23:24;;;;;;;10.13;9.17;;;25.70;58.40;;;;;;6274060;28;20223;-64
2021/10/09 08:36:36;;;;;;;10.65;9.68;;;32.40;35.40;;;;;;6274821;28;20654;-64
2021/10/09 08:39:40;;;;;;;11.38;10.38;;;33.70;31.90;;;;;;6274809;28;20239;-64
2021/10/09 08:42:44;;;;;;;11.80;10.70;;;34.00;30.00;;;;;;6274819;28;20242;-64
2021/10/09 08:45:47;;;;;;;12.40;11.13;;;34.10;29.90;;;;;;6274002;28;20580;-66
2021/10/09 08:48:52;;;;;;;11.48;10.38;;;35.10;28.40;;;;;;6274496;28;20223;-65
2021/10/09 08:51:55;;;;;;;13.95;10.85;;;34.40;28.40;;;;;;6274945;28;20330;-66
2021/10/09 08:55:18;;;;;;;13.48;12.07;;;34.70;27.80;;;;;;6274486;28;20230;-65
2021/10/09 08:58:33;;;;;;;13.18;11.88;;;35.20;27.40;;;;;;6274090;28;20269;-65
2021/10/09 09:01:50;;;;;;;12.75;11.38;;;34.30;26.90;;;;;;6273726;28;20243;-64
2021/10/09 09:05:06;;;;;;;12.48;11.38;;;33.60;28.20;;;;;;6273997;28;20235;-64
2021/10/09 09:08:31;;;;;;;14.02;12.63;;;32.80;27.90;;;;;;6275188;28;20251;-64
2021/10/09 09:25:51;;;;;;;12.02;10.93;;;34.40;27.60;;;;;;6207759;28;20693;-64
2021/10/09 09:36:06;;;;;;;13.15;11.95;;;39.10;21.60;;;;;;6263294;28;20689;-67
2021/10/09 09:39:10;;;;;;;12.63;10.70;;;40.10;21.00;;;;;;6277913;28;20231;-67
2021/10/09 09:42:24;;;;;;;12.95;10.60;;;38.30;20.60;;;;;;6278451;28;20234;-67
2021/10/09 09:45:29;;;;;;;11.43;10.32;;;39.00;21.20;;;;;;6278090;28;20242;-67
2021/10/09 09:48:32;;;;;;;12.60;10.20;;;36.50;21.40;;;;;;6278201;28;20712;-67
2021/10/09 09:51:38;;;;;;;12.32;10.30;;;34.30;23.10;;;;;;6278078;28;20759;-67
2021/10/09 09:54:43;;;;;;;10.95;9.38;;;33.50;24.20;;;;;;6278263;28;20238;-67
2021/10/09 09:57:48;;;;;;;16.63;10.95;;;32.50;25.10;;;;;;6278191;28;20235;-68
2021/10/09 10:00:56;;;;;;;12.00;9.80;;;31.50;24.70;;;;;;6277392;28;20245;-68
2021/10/09 10:04:00;;;;;;;15.07;10.10;;;29.90;26.70;;;;;;6276384;28;20226;-65
2021/10/09 10:07:04;;;;;;;11.33;9.93;;;28.20;27.50;;;;;;6277569;28;20230;-68
2021/10/09 10:10:09;;;;;;;14.10;10.30;;;26.90;28.90;;;;;;6277980;28;20567;-66
2021/10/09 10:13:12;;;;;;;14.97;9.90;;;25.90;31.10;;;;;;6277895;28;20215;-68
2021/10/09 10:16:17;;;;;;;13.30;9.37;;;24.60;32.50;;;;;;6277093;28;20234;-68
2021/10/09 10:19:20;;;;;;;12.53;8.77;;;23.20;32.30;;;;;;6277250;28;20239;-67
2021/10/09 10:22:54;;;;;;;10.50;9.27;;;22.70;34.40;;;;;;6277256;28;20292;-66
2021/10/09 10:26:25;;;;;;;11.73;8.93;;;22.40;34.70;;;;;;6272317;28;20568;-64
2021/10/09 10:29:28;;;;;;;10.97;9.20;;;22.30;34.90;;;;;;6275241;28;20235;-63
2021/10/09 10:32:32;;;;;;;9.57;8.57;;;22.80;34.80;;;;;;6252195;28;20703;-63
2021/10/09 10:35:48;;;;;;;9.23;7.73;;;22.60;33.30;;;;;;6252557;28;20243;-65
2021/10/09 10:38:56;;;;;;;15.27;9.23;;;22.40;34.60;;;;;;6252007;28;20243;-66
2021/10/09 10:42:01;;;;;;;10.53;8.00;;;22.20;35.90;;;;;;6251931;28;20240;-66
2021/10/09 10:45:09;;;;;;;12.13;7.93;;;21.90;36.00;;;;;;6251215;28;20685;-66
2021/10/09 10:48:44;;;;;;;10.40;7.93;;;21.80;36.00;;;;;;6276817;28;20231;-70
2021/10/09 10:52:07;;;;;;;8.97;6.70;;;21.70;36.00;;;;;;6279413;28;20235;-70
2021/10/09 10:55:10;;;;;;;13.20;8.57;;;21.60;36.90;;;;;;6267234;28;20299;-64
2021/10/09 10:58:20;;;;;;;9.97;7.67;;;21.30;36.40;;;;;;6262834;28;20235;-64
2021/10/09 11:01:26;;;;;;;11.67;8.67;;;20.90;35.00;;;;;;6259135;28;20244;-63
2021/10/09 11:04:36;;;;;;;13.70;7.07;;;21.70;34.00;;;;;;6250972;28;20224;-66
2021/10/09 11:07:40;;;;;;;16.10;8.80;;;25.00;32.00;;;;;;6262711;28;20200;-67
2021/10/09 11:10:49;;;;;;;12.73;7.80;;;27.90;28.60;;;;;;6276209;28;20706;-67
2021/10/09 11:13:52;;;;;;;11.07;8.23;;;29.60;26.70;;;;;;6276266;28;20238;-67
2021/10/09 11:17:02;;;;;;;12.33;8.37;;;31.00;25.40;;;;;;6276149;28;20537;-67
2021/10/09 11:20:09;;;;;;;8.53;7.63;;;30.50;25.00;;;;;;6276418;28;20233;-67
2021/10/09 11:23:13;;;;;;;12.10;7.60;;;29.20;26.10;;;;;;6276259;28;20227;-67
2021/10/09 11:26:21;;;;;;;10.13;7.87;;;28.70;26.60;;;;;;6266314;28;20220;-67
2021/10/09 11:29:24;;;;;;;10.90;8.93;;;30.90;25.40;;;;;;6261626;28;20227;-67
2021/10/09 11:32:30;;;;;;;8.60;7.70;;;31.70;23.30;;;;;;6262574;28;20280;-66
2021/10/09 11:35:38;;;;;;;10.00;7.03;;;30.40;23.60;;;;;;6261805;28;20693;-66
2021/10/09 11:38:41;;;;;;;8.53;7.57;;;31.00;24.20;;;;;;6263519;28;20224;-67
2021/10/09 11:42:01;;;;;;;9.00;7.80;;;30.20;23.30;;;;;;6261658;28;20231;-67
2021/10/09 11:45:13;;;;;;;10.37;7.20;;;29.00;24.50;;;;;;6263638;28;20291;-67
2021/10/09 11:55:17;;;;;;;9.32;6.75;;;34.20;21.90;;;;;;6275062;28;20228;-67
2021/10/09 11:58:20;;;;;;;13.02;7.88;;;38.00;19.90;;;;;;6274623;28;20277;-66
2021/10/09 12:01:35;;;;;;;11.63;8.40;;;39.90;18.10;;;;;;6274595;28;20242;-65
2021/10/09 12:04:39;;;;;;;13.32;7.57;;;41.40;16.60;;;;;;6274662;28;20228;-72
2021/10/09 12:08:03;;;;;;;9.55;7.35;;;42.30;15.90;;;;;;6269701;28;20225;-66
2021/10/09 12:11:12;;;;;;;9.05;7.30;;;41.40;15.90;;;;;;6250159;28;20289;-66
2021/10/09 12:14:15;;;;;;;8.93;7.65;;;38.80;16.60;;;;;;6263990;28;20582;-65
2021/10/09 12:17:20;;;;;;;9.43;7.90;;;37.40;17.60;;;;;;6274874;28;20241;-65
2021/10/09 12:20:27;;;;;;;8.80;7.32;;;36.80;18.30;;;;;;6274880;28;20667;-65
2021/10/09 12:23:32;;;;;;;9.93;7.78;;;38.50;18.70;;;;;;6275232;28;20237;-65
2021/10/09 12:26:35;;;;;;;9.95;7.57;;;40.00;17.60;;;;;;6274589;28;20230;-66
2021/10/09 12:29:57;;;;;;;8.50;6.82;;;41.60;17.40;;;;;;6266612;28;20619;-64
2021/10/09 12:33:01;;;;;;;7.63;6.93;;;42.50;16.30;;;;;;6274363;28;20246;-66
2021/10/09 12:36:27;;;;;;;10.30;7.55;;;42.80;16.40;;;;;;6274862;28;20233;-69
2021/10/09 12:39:32;;;;;;;13.70;7.82;;;43.40;15.50;;;;;;6274765;28;20231;-64
2021/10/09 12:42:35;;;;;;;9.82;7.97;;;44.40;15.10;;;;;;6275116;28;20234;-66
2021/10/09 12:45:39;;;;;;;8.75;7.68;;;45.10;14.80;;;;;;6247896;28;20568;-63
2021/10/09 12:48:42;;;;;;;9.02;8.10;;;44.70;14.00;;;;;;6272325;28;20234;-67
2021/10/09 12:51:45;;;;;;;9.05;7.65;;;44.80;14.10;;;;;;6254885;28;20242;-63
2021/10/09 12:54:50;;;;;;;11.70;7.97;;;44.30;13.80;;;;;;6255249;28;20235;-66
2021/10/09 12:57:55;;;;;;;8.75;7.90;;;43.30;14.20;;;;;;6254530;28;20671;-64
2021/10/09 13:00:58;;;;;;;11.30;8.48;;;43.20;14.40;;;;;;6254077;28;20270;-66
2021/10/09 13:04:01;;;;;;;11.07;7.70;;;42.20;14.70;;;;;;6254056;28;20696;-66
2021/10/09 13:07:04;;;;;;;8.27;7.47;;;42.60;14.60;;;;;;6264691;28;20227;-66
2021/10/09 13:10:11;;;;;;;8.32;6.95;;;42.50;14.30;;;;;;6278505;28;20231;-67
2021/10/09 13:13:14;;;;;;;9.85;7.45;;;40.80;14.60;;;;;;6278525;28;20215;-66
2021/10/09 13:16:17;;;;;;;10.13;7.82;;;39.70;15.30;;;;;;6278578;28;20227;-66
2021/10/09 13:19:20;;;;;;;8.55;7.57;;;38.60;15.40;;;;;;6279454;28;20231;-66
2021/10/09 13:22:24;;;;;;;9.73;7.40;;;36.80;16.10;;;;;;6278934;28;20589;-64
2021/10/09 13:25:28;;;;;;;8.80;7.90;;;35.30;16.80;;;;;;6278373;28;20227;-66
2021/10/09 13:28:32;;;;;;;12.00;9.43;;;32.60;18.70;;;;;;6275541;28;20226;-65
2021/10/09 13:31:35;;;;;;;11.00;7.80;;;29.20;21.30;;;;;;6266554;28;20659;-66
2021/10/09 13:34:38;;;;;;;9.73;8.73;;;27.90;23.20;;;;;;6268029;28;20213;-63
2021/10/09 13:37:48;;;;;;;11.83;9.20;;;27.00;23.70;;;;;;6265625;28;20192;-63
2021/10/09 13:40:53;;;;;;;12.97;8.60;;;25.20;25.50;;;;;;6264065;28;20314;-62
2021/10/09 13:43:56;;;;;;;9.20;8.33;;;23.60;26.40;;;;;;6264377;28;20238;-62
2021/10/09 13:46:59;;;;;;;9.30;8.40;;;22.40;27.90;;;;;;6259293;28;20235;-63
2021/10/09 13:50:02;;;;;;;9.43;7.90;;;21.70;28.60;;;;;;6278190;28;20227;-63
2021/10/09 13:53:06;;;;;;;9.20;8.10;;;21.10;29.10;;;;;;6267299;28;20219;-63
2021/10/09 13:56:11;;;;;;;12.00;8.60;;;20.60;30.40;;;;;;6271781;28;20235;-64
2021/10/09 13:59:14;;;;;;;10.27;7.43;;;20.00;30.80;;;;;;6278196;28;20246;-64
2021/10/09 14:02:17;;;;;;;10.10;7.50;;;19.90;31.40;;;;;;6277507;28;20235;-64
2021/10/09 14:05:21;;;;;;;10.90;7.03;;;19.70;31.80;;;;;;6277978;28;20235;-63
2021/10/09 14:08:24;;;;;;;9.93;6.97;;;19.00;32.30;;;;;;6274379;28;20239;-64
2021/10/09 14:11:29;;;;;;;10.20;6.47;;;18.50;33.80;;;;;;6278463;28;20243;-64
2021/10/09 14:14:32;;;;;;;12.10;7.33;;;18.40;34.30;;;;;;6293860;28;20712;-63
2021/10/09 14:17:36;;;;;;;8.40;6.50;;;18.20;34.40;;;;;;6302316;28;20910;-63
2021/10/09 14:20:39;;;;;;;11.50;7.30;;;17.80;35.30;;;;;;6278244;28;20550;-65
2021/10/09 14:23:44;;;;;;;14.03;7.70;;;16.90;37.30;;;;;;6254564;28;20779;-65
2021/10/09 14:26:48;;;;;;;7.77;6.97;;;16.80;38.20;;;;;;6260673;28;20601;-64
2021/10/09 14:29:51;;;;;;;11.60;7.87;;;16.70;38.00;;;;;;6264646;28;20474;-64
2021/10/09 14:32:55;;;;;;;10.67;7.77;;;16.70;38.60;;;;;;6269527;28;20473;-64
2021/10/09 14:35:58;;;;;;;11.87;8.60;;;16.70;38.90;;;;;;6277198;28;20462;-64
2021/10/09 14:39:01;;;;;;;9.37;7.23;;;16.70;39.20;;;;;;6277352;28;20552;-64
2021/10/09 14:42:06;;;;;;;11.33;7.60;;;16.70;39.10;;;;;;6276721;28;20791;-64
2021/10/09 14:45:10;;;;;;;12.17;7.20;;;16.30;39.30;;;;;;6273655;28;20482;-64
2021/10/09 14:48:17;;;;;;;13.90;7.03;;;15.90;40.20;;;;;;6276258;28;21191;-64
2021/10/09 14:51:26;;;;;;;17.70;7.60;;;15.90;41.00;;;;;;6298290;28;20473;-63
2021/10/09 14:54:52;;;;;;;8.33;6.80;;;15.70;41.50;;;;;;6301692;28;20469;-64
2021/10/09 15:18:22;;;;;;;12.43;8.10;;;15.50;43.50;;;;;;6277443;28;20497;-63
2021/10/09 15:21:25;;;;;;;11.60;7.63;;;15.50;43.40;;;;;;6276321;28;20482;-63
2021/10/09 15:24:28;;;;;;;14.70;8.50;;;15.40;43.70;;;;;;6274775;28;20746;-63
2021/10/09 15:27:31;;;;;;;8.83;6.57;;;15.20;44.10;;;;;;6275083;28;20485;-63
2021/10/09 15:30:36;;;;;;;11.10;8.20;;;15.00;44.40;;;;;;6274802;28;20485;-63
2021/10/09 15:33:39;;;;;;;11.37;7.43;;;14.80;45.30;;;;;;6274874;28;20474;-63
2021/10/09 15:36:42;;;;;;;14.23;7.17;;;14.80;45.90;;;;;;6275800;28;20477;-63
2021/10/09 15:39:46;;;;;;;12.50;7.50;;;14.70;45.60;;;;;;6276785;28;20524;-63
2021/10/09 15:42:50;;;;;;;8.57;7.67;;;14.70;46.10;;;;;;6276195;28;20482;-63
2021/10/09 15:45:55;;;;;;;10.60;8.90;;;14.70;46.30;;;;;;6276475;28;20484;-63
2021/10/09 15:48:58;;;;;;;12.10;7.27;;;14.70;46.70;;;;;;6276300;28;20771;-63
2021/10/09 15:52:01;;;;;;;11.50;7.67;;;14.70;47.00;;;;;;6276179;28;20517;-63
2021/10/09 15:55:05;;;;;;;13.13;8.60;;;14.50;46.30;;;;;;6276374;28;20801;-63
2021/10/09 15:58:08;;;;;;;13.03;8.60;;;14.50;47.00;;;;;;6267384;28;20508;-63
2021/10/09 16:01:13;;;;;;;12.00;7.93;;;14.40;47.20;;;;;;6275628;28;20482;-63
2021/10/09 16:04:16;;;;;;;11.70;9.27;;;14.30;48.10;;;;;;6275754;28;20588;-63
2021/10/09 16:07:19;;;;;;;10.70;7.13;;;14.30;48.20;;;;;;6275516;28;20549;-63
2021/10/09 16:10:23;;;;;;;13.57;8.47;;;14.30;48.60;;;;;;6274790;28;20780;-64
2021/10/09 16:13:28;;;;;;;9.83;8.47;;;14.20;48.80;;;;;;6275000;28;20954;-63
2021/10/09 16:16:33;;;;;;;9.97;8.67;;;14.00;49.10;;;;;;6273802;28;20470;-63
2021/10/09 16:19:36;;;;;;;9.53;6.93;;;13.90;50.10;;;;;;6275250;28;20438;-63
2021/10/09 16:22:39;;;;;;;10.83;8.67;;;13.80;50.60;;;;;;6274654;28;20977;-63
2021/10/09 16:25:42;;;;;;;12.80;8.03;;;13.80;50.70;;;;;;6275596;28;20503;-63
2021/10/09 16:28:45;;;;;;;13.13;7.83;;;13.70;50.90;;;;;;6274223;28;20958;-63
2021/10/09 16:31:50;;;;;;;12.57;8.17;;;13.70;51.50;;;;;;6274428;28;20934;-63
2021/10/09 16:34:53;;;;;;;14.03;8.93;;;13.60;51.60;;;;;;6274530;28;20481;-63
2021/10/09 16:37:56;;;;;;;11.80;8.13;;;13.50;52.20;;;;;;6274967;28;20469;-63
2021/10/09 16:41:00;;;;;;;10.80;8.33;;;13.40;52.40;;;;;;6274664;28;20485;-63
2021/10/09 16:44:03;;;;;;;9.33;8.30;;;13.30;52.00;;;;;;6275829;28;20469;-63
2021/10/09 16:47:11;;;;;;;13.33;9.30;;;13.00;52.90;;;;;;6275407;28;20988;-63
2021/10/09 16:50:15;;;;;;;18.93;9.43;;;12.90;53.50;;;;;;6275014;28;20473;-63
2021/10/09 16:53:18;;;;;;;12.70;8.93;;;12.80;53.10;;;;;;6275417;28;20466;-63
2021/10/09 16:56:21;;;;;;;13.43;8.93;;;12.80;53.20;;;;;;6270208;28;20841;-63
2021/10/09 16:59:24;;;;;;;14.73;8.93;;;12.70;53.50;;;;;;6274514;28;20848;-63
2021/10/09 17:02:29;;;;;;;14.07;8.57;;;12.60;53.60;;;;;;6274493;28;20470;-63
2021/10/09 17:05:32;;;;;;;13.90;9.60;;;12.70;54.10;;;;;;6275143;28;20477;-63
2021/10/09 17:08:38;;;;;;;13.03;8.63;;;12.60;54.40;;;;;;6274303;28;20988;-63
2021/10/09 17:11:41;;;;;;;12.60;9.80;;;12.50;54.70;;;;;;6274474;28;20958;-63
2021/10/09 17:14:44;;;;;;;11.37;8.60;;;12.50;55.00;;;;;;6273851;28;20969;-63
2021/10/09 17:17:48;;;;;;;10.70;8.00;;;12.40;55.50;;;;;;6274231;28;20470;-63
2021/10/09 17:20:52;;;;;;;11.77;8.77;;;12.40;56.00;;;;;;6274142;28;20501;-63
2021/10/09 17:23:55;;;;;;;13.43;9.03;;;12.30;56.30;;;;;;6274184;28;20470;-63
2021/10/09 17:26:58;;;;;;;12.40;9.73;;;12.20;56.70;;;;;;6273814;28;20477;-63
2021/10/09 17:30:01;;;;;;;16.00;10.10;;;12.10;57.50;;;;;;6276102;28;20474;-63
2021/10/09 17:33:05;;;;;;;12.20;9.93;;;12.00;57.80;;;;;;6309892;23;20465;-63
2021/10/09 17:36:09;;;;;;;13.03;9.33;;;12.00;58.30;;;;;;6303433;28;20487;-63
2021/10/09 17:39:12;;;;;;;13.70;8.77;;;12.00;58.60;;;;;;6303381;28;20477;-63
2021/10/09 17:42:15;;;;;;;11.00;8.77;;;12.00;58.90;;;;;;6303493;28;20473;-63
2021/10/09 17:45:18;;;;;;;14.43;9.33;;;11.90;59.00;;;;;;6303526;28;20530;-63
2021/10/09 17:48:24;;;;;;;14.40;10.20;;;11.90;59.30;;;;;;6303920;28;20472;-63
2021/10/09 17:51:30;;;;;;;11.93;10.60;;;11.90;59.70;;;;;;6304120;28;21023;-63
2021/10/09 17:54:33;;;;;;;13.80;11.43;;;11.90;60.10;;;;;;6303121;28;20968;-63
2021/10/09 17:57:36;;;;;;;13.50;10.30;;;11.90;60.60;;;;;;6303226;28;20880;-63